Aérodrome :
LOGIN :

S'inscrire | Disclaimer

   EN    FR    IT 

 










Légende :    VFR   VFR Marginal   IFR   IFR Intensif   IFR Très Intensif
Visi : 
Plafond : 
>= 8 km
>= 3000ft
5 à 8 km
1000 à 3000 ft
1500m à 5 km
500 à 1000 ft
800 à 1500m
200 à 500 ft
< 800m
< 200 ft
Symboles :   Orages  Brouillard  Fortes neiges  Fortes précipitations  Vent > 20 kt
SIGMETs :   Divers  Orages  Givrage  Turbulence  Onde Orograph.  Cendres Volcan.







- Altitude de l'aérodrome : 28 ft
- Code IATA : SOZ
- Voir les cartes d'approche


LFKS - Solenzara

DERNIER METAR :
  • 210730Z AUTO 02006KT 350V050 CAVOK 30/17 Q1014

METARs EXPIRÉS :
  • 210700Z AUTO 36005KT 320V020 CAVOK 30/16 Q1014
  • 210630Z AUTO VRB01KT 9999 FEW088 28/17 Q1014
  • 210230Z AUTO 28007KT CAVOK 24/15 Q1013
  • 210600Z AUTO 29004KT 260V320 CAVOK 26/15 Q1014
  • 210530Z AUTO 28005KT CAVOK 25/15 Q1014
  • 210500Z AUTO 29004KT CAVOK 24/15 Q1014

TAF TAF LFKS
Valide du 21 à 04h jusqu'au 22 à 03h UTC


210455Z 2104/2203 28005KT 9999 FEW050
BECMG 2107/2109 04010KT
TEMPO 2111/2117 FEW050CB
BECMG 2119/2121 28005KT
Pas de NOTAMs connus pour ce terrain.



MET'MAP, la Météo Aéronautique d'un coup d'oeil ! - Copyright ORBIFLY Décembre 2007 - Disclaimer

ORBIFLY MET'MAP TEAM :

Programmation & Développement : Alexandra Zaïnal
Conception & Développement : Baudouin d'Aumeries
Co-Programmation & Développement : Marc-Olivier Méhu
Soutien technique & logistique : Manuel Goepfert

Contact : metmap@orbifly.com




SOURCES & CREDITS :

   NOAA